sensor_id;sensor_type;location;lat;lon;timestamp;temperature;humidity
37984;DHT22;64625;50.882;4.376;2023-02-24T00:01:41;8.30;99.90
37984;DHT22;64625;50.882;4.376;2023-02-24T00:04:11;8.30;99.90
37984;DHT22;64625;50.882;4.376;2023-02-24T00:06:40;8.20;99.90
37984;DHT22;64625;50.882;4.376;2023-02-24T00:11:40;8.20;99.90
37984;DHT22;64625;50.882;4.376;2023-02-24T00:14:08;8.10;99.90
37984;DHT22;64625;50.882;4.376;2023-02-24T00:16:35;8.10;99.90
37984;DHT22;64625;50.882;4.376;2023-02-24T00:19:03;8.00;99.90
37984;DHT22;64625;50.882;4.376;2023-02-24T00:21:32;8.00;99.90
37984;DHT22;64625;50.882;4.376;2023-02-24T00:23:58;8.00;99.90
37984;DHT22;64625;50.882;4.376;2023-02-24T00:26:24;8.00;99.90
37984;DHT22;64625;50.882;4.376;2023-02-24T00:28:51;8.00;99.90
37984;DHT22;64625;50.882;4.376;2023-02-24T00:31:18;8.00;99.90
37984;DHT22;64625;50.882;4.376;2023-02-24T00:33:45;8.00;99.90
37984;DHT22;64625;50.882;4.376;2023-02-24T00:36:21;7.90;99.90
37984;DHT22;64625;50.882;4.376;2023-02-24T00:38:57;7.90;99.90
37984;DHT22;64625;50.882;4.376;2023-02-24T00:41:26;7.90;99.90
37984;DHT22;64625;50.882;4.376;2023-02-24T00:43:55;7.90;99.90
37984;DHT22;64625;50.882;4.376;2023-02-24T00:46:24;7.90;99.90
37984;DHT22;64625;50.882;4.376;2023-02-24T00:48:52;7.90;99.90
37984;DHT22;64625;50.882;4.376;2023-02-24T00:51:23;7.90;99.90
37984;DHT22;64625;50.882;4.376;2023-02-24T00:53:54;7.90;99.90
37984;DHT22;64625;50.882;4.376;2023-02-24T00:56:28;7.90;99.90
37984;DHT22;64625;50.882;4.376;2023-02-24T00:58:56;7.90;99.90
37984;DHT22;64625;50.882;4.376;2023-02-24T01:01:26;7.90;99.90
37984;DHT22;64625;50.882;4.376;2023-02-24T01:03:52;7.90;99.90
37984;DHT22;64625;50.882;4.376;2023-02-24T01:06:24;7.90;99.90
37984;DHT22;64625;50.882;4.376;2023-02-24T01:08:51;7.90;99.90
37984;DHT22;64625;50.882;4.376;2023-02-24T01:11:24;7.90;99.90
37984;DHT22;64625;50.882;4.376;2023-02-24T01:14:15;7.90;99.90
37984;DHT22;64625;50.882;4.376;2023-02-24T01:16:42;7.80;99.90
37984;DHT22;64625;50.882;4.376;2023-02-24T01:19:16;7.80;99.90
37984;DHT22;64625;50.882;4.376;2023-02-24T01:21:42;7.90;99.90
37984;DHT22;64625;50.882;4.376;2023-02-24T01:24:08;7.80;99.90
37984;DHT22;64625;50.882;4.376;2023-02-24T01:26:35;7.80;99.90
37984;DHT22;64625;50.882;4.376;2023-02-24T01:29:01;7.80;99.90
37984;DHT22;64625;50.882;4.376;2023-02-24T01:31:29;7.80;99.90
37984;DHT22;64625;50.882;4.376;2023-02-24T01:33:55;7.80;99.90
37984;DHT22;64625;50.882;4.376;2023-02-24T01:36:23;7.80;99.90
37984;DHT22;64625;50.882;4.376;2023-02-24T01:38:52;7.80;99.90
37984;DHT22;64625;50.882;4.376;2023-02-24T01:41:22;7.80;99.90
37984;DHT22;64625;50.882;4.376;2023-02-24T01:46:55;7.80;99.90
37984;DHT22;64625;50.882;4.376;2023-02-24T01:49:34;7.80;99.90
37984;DHT22;64625;50.882;4.376;2023-02-24T01:52:09;7.80;99.90
37984;DHT22;64625;50.882;4.376;2023-02-24T01:54:54;7.70;99.90
37984;DHT22;64625;50.882;4.376;2023-02-24T01:57:26;7.70;99.90
37984;DHT22;64625;50.882;4.376;2023-02-24T01:59:55;7.70;99.90
37984;DHT22;64625;50.882;4.376;2023-02-24T02:02:27;7.70;99.90
37984;DHT22;64625;50.882;4.376;2023-02-24T02:04:59;7.70;99.90
37984;DHT22;64625;50.882;4.376;2023-02-24T02:07:28;7.70;99.90
37984;DHT22;64625;50.882;4.376;2023-02-24T02:09:56;7.60;99.90
37984;DHT22;64625;50.882;4.376;2023-02-24T02:12:26;7.70;99.90
37984;DHT22;64625;50.882;4.376;2023-02-24T02:14:55;7.60;99.90
37984;DHT22;64625;50.882;4.376;2023-02-24T02:42:09;7.50;99.90
37984;DHT22;64625;50.882;4.376;2023-02-24T02:47:29;7.40;99.90
37984;DHT22;64625;50.882;4.376;2023-02-24T02:52:54;7.40;99.90
37984;DHT22;64625;50.882;4.376;2023-02-24T02:55:40;7.40;99.90
37984;DHT22;64625;50.882;4.376;2023-02-24T02:58:13;7.40;99.90
37984;DHT22;64625;50.882;4.376;2023-02-24T03:00:44;7.40;99.90
37984;DHT22;64625;50.882;4.376;2023-02-24T03:03:23;7.40;99.90
37984;DHT22;64625;50.882;4.376;2023-02-24T03:05:57;7.40;99.90
37984;DHT22;64625;50.882;4.376;2023-02-24T03:08:28;7.40;99.90
37984;DHT22;64625;50.882;4.376;2023-02-24T03:10:58;7.40;99.90
37984;DHT22;64625;50.882;4.376;2023-02-24T03:13:32;7.30;99.90
37984;DHT22;64625;50.882;4.376;2023-02-24T03:16:01;7.40;99.90
37984;DHT22;64625;50.882;4.376;2023-02-24T03:18:34;7.40;99.90
37984;DHT22;64625;50.882;4.376;2023-02-24T03:21:11;7.40;99.90
37984;DHT22;64625;50.882;4.376;2023-02-24T03:23:48;7.40;99.90
37984;DHT22;64625;50.882;4.376;2023-02-24T03:29:11;7.40;99.90
37984;DHT22;64625;50.882;4.376;2023-02-24T03:32:03;7.30;99.90
37984;DHT22;64625;50.882;4.376;2023-02-24T03:37:35;7.40;99.90
37984;DHT22;64625;50.882;4.376;2023-02-24T03:40:06;7.30;99.90
37984;DHT22;64625;50.882;4.376;2023-02-24T03:42:39;7.30;99.90
37984;DHT22;64625;50.882;4.376;2023-02-24T03:45:05;7.30;99.90
37984;DHT22;64625;50.882;4.376;2023-02-24T03:47:33;7.30;99.90
37984;DHT22;64625;50.882;4.376;2023-02-24T03:50:20;7.30;99.90
37984;DHT22;64625;50.882;4.376;2023-02-24T03:53:01;7.30;99.90
37984;DHT22;64625;50.882;4.376;2023-02-24T03:56:02;7.30;99.90
37984;DHT22;64625;50.882;4.376;2023-02-24T04:04:50;7.30;99.90
37984;DHT22;64625;50.882;4.376;2023-02-24T04:10:02;7.30;99.90
37984;DHT22;64625;50.882;4.376;2023-02-24T04:12:29;7.30;99.90
37984;DHT22;64625;50.882;4.376;2023-02-24T04:15:02;7.30;99.90
37984;DHT22;64625;50.882;4.376;2023-02-24T04:17:51;7.30;99.90
37984;DHT22;64625;50.882;4.376;2023-02-24T04:20:21;7.30;99.90
37984;DHT22;64625;50.882;4.376;2023-02-24T04:22:52;7.30;99.90
37984;DHT22;64625;50.882;4.376;2023-02-24T04:25:22;7.30;99.90
37984;DHT22;64625;50.882;4.376;2023-02-24T04:27:54;7.30;99.90
37984;DHT22;64625;50.882;4.376;2023-02-24T04:30:21;7.30;99.90
37984;DHT22;64625;50.882;4.376;2023-02-24T04:32:47;7.30;99.90
37984;DHT22;64625;50.882;4.376;2023-02-24T04:35:17;7.40;99.90
37984;DHT22;64625;50.882;4.376;2023-02-24T04:37:43;7.30;99.90
37984;DHT22;64625;50.882;4.376;2023-02-24T04:40:14;7.30;99.90
37984;DHT22;64625;50.882;4.376;2023-02-24T04:42:47;7.30;99.90
37984;DHT22;64625;50.882;4.376;2023-02-24T04:45:20;7.30;99.90
37984;DHT22;64625;50.882;4.376;2023-02-24T04:47:48;7.30;99.90
37984;DHT22;64625;50.882;4.376;2023-02-24T04:50:21;7.30;99.90
37984;DHT22;64625;50.882;4.376;2023-02-24T04:52:58;7.30;99.90
37984;DHT22;64625;50.882;4.376;2023-02-24T04:55:30;7.30;99.90
37984;DHT22;64625;50.882;4.376;2023-02-24T04:57:59;7.30;99.90
37984;DHT22;64625;50.882;4.376;2023-02-24T05:00:25;7.30;99.90
37984;DHT22;64625;50.882;4.376;2023-02-24T05:02:55;7.30;99.90
37984;DHT22;64625;50.882;4.376;2023-02-24T05:05:23;7.30;99.90
37984;DHT22;64625;50.882;4.376;2023-02-24T05:08:07;7.30;99.90
37984;DHT22;64625;50.882;4.376;2023-02-24T05:10:42;7.20;99.90
37984;DHT22;64625;50.882;4.376;2023-02-24T05:13:17;7.20;99.90
37984;DHT22;64625;50.882;4.376;2023-02-24T05:15:45;7.20;99.90
37984;DHT22;64625;50.882;4.376;2023-02-24T05:18:13;7.20;99.90
37984;DHT22;64625;50.882;4.376;2023-02-24T05:20:48;7.20;99.90
37984;DHT22;64625;50.882;4.376;2023-02-24T05:23:34;7.20;99.90
37984;DHT22;64625;50.882;4.376;2023-02-24T05:26:03;7.20;99.90
37984;DHT22;64625;50.882;4.376;2023-02-24T05:28:38;7.20;99.90
37984;DHT22;64625;50.882;4.376;2023-02-24T05:31:14;7.20;99.90
37984;DHT22;64625;50.882;4.376;2023-02-24T05:33:41;7.20;99.90
37984;DHT22;64625;50.882;4.376;2023-02-24T05:36:16;7.20;99.90
37984;DHT22;64625;50.882;4.376;2023-02-24T05:38:43;7.20;99.90
37984;DHT22;64625;50.882;4.376;2023-02-24T05:41:17;7.20;99.90
37984;DHT22;64625;50.882;4.376;2023-02-24T05:43:45;7.10;99.90
37984;DHT22;64625;50.882;4.376;2023-02-24T05:46:19;7.10;99.90
37984;DHT22;64625;50.882;4.376;2023-02-24T05:48:49;7.10;99.90
37984;DHT22;64625;50.882;4.376;2023-02-24T05:51:16;7.10;99.90
37984;DHT22;64625;50.882;4.376;2023-02-24T05:53:42;7.00;99.90
37984;DHT22;64625;50.882;4.376;2023-02-24T05:56:09;7.00;99.90
37984;DHT22;64625;50.882;4.376;2023-02-24T05:58:36;7.00;99.90
37984;DHT22;64625;50.882;4.376;2023-02-24T06:01:12;7.00;99.90
37984;DHT22;64625;50.882;4.376;2023-02-24T06:03:44;7.00;99.90
37984;DHT22;64625;50.882;4.376;2023-02-24T06:06:18;6.90;99.90
37984;DHT22;64625;50.882;4.376;2023-02-24T06:08:44;7.00;99.90
37984;DHT22;64625;50.882;4.376;2023-02-24T06:11:19;6.90;99.90
37984;DHT22;64625;50.882;4.376;2023-02-24T06:13:45;6.90;99.90
37984;DHT22;64625;50.882;4.376;2023-02-24T06:16:16;6.90;99.90
37984;DHT22;64625;50.882;4.376;2023-02-24T06:18:46;6.90;99.90
37984;DHT22;64625;50.882;4.376;2023-02-24T06:21:12;6.90;99.90
37984;DHT22;64625;50.882;4.376;2023-02-24T06:23:41;6.90;99.90
37984;DHT22;64625;50.882;4.376;2023-02-24T06:26:07;6.90;99.90
37984;DHT22;64625;50.882;4.376;2023-02-24T06:28:38;6.90;99.90
37984;DHT22;64625;50.882;4.376;2023-02-24T06:31:08;6.90;99.90
37984;DHT22;64625;50.882;4.376;2023-02-24T06:33:36;6.90;99.90
37984;DHT22;64625;50.882;4.376;2023-02-24T06:36:03;6.80;99.90
37984;DHT22;64625;50.882;4.376;2023-02-24T06:38:30;6.80;99.90
37984;DHT22;64625;50.882;4.376;2023-02-24T06:40:58;6.80;99.90
37984;DHT22;64625;50.882;4.376;2023-02-24T06:43:25;6.80;99.90
37984;DHT22;64625;50.882;4.376;2023-02-24T06:45:51;6.80;99.90
37984;DHT22;64625;50.882;4.376;2023-02-24T06:48:17;6.80;99.90
37984;DHT22;64625;50.882;4.376;2023-02-24T06:50:42;6.70;99.90
37984;DHT22;64625;50.882;4.376;2023-02-24T06:53:08;6.70;99.90
37984;DHT22;64625;50.882;4.376;2023-02-24T06:55:45;6.70;99.90
37984;DHT22;64625;50.882;4.376;2023-02-24T06:58:19;6.60;99.90
37984;DHT22;64625;50.882;4.376;2023-02-24T07:00:45;6.60;99.90
37984;DHT22;64625;50.882;4.376;2023-02-24T07:03:28;6.60;99.90
37984;DHT22;64625;50.882;4.376;2023-02-24T07:06:05;6.60;99.90
37984;DHT22;64625;50.882;4.376;2023-02-24T07:08:51;6.60;99.90
37984;DHT22;64625;50.882;4.376;2023-02-24T07:11:18;6.60;99.90
37984;DHT22;64625;50.882;4.376;2023-02-24T07:13:46;6.60;99.90
37984;DHT22;64625;50.882;4.376;2023-02-24T07:16:20;6.50;99.90
37984;DHT22;64625;50.882;4.376;2023-02-24T07:18:53;6.50;99.90
37984;DHT22;64625;50.882;4.376;2023-02-24T07:21:22;6.60;99.90
37984;DHT22;64625;50.882;4.376;2023-02-24T07:23:49;6.50;99.90
37984;DHT22;64625;50.882;4.376;2023-02-24T07:26:22;6.50;99.90
37984;DHT22;64625;50.882;4.376;2023-02-24T07:28:49;6.50;99.90
37984;DHT22;64625;50.882;4.376;2023-02-24T07:31:17;6.50;99.90
37984;DHT22;64625;50.882;4.376;2023-02-24T07:33:44;6.50;99.90
37984;DHT22;64625;50.882;4.376;2023-02-24T07:36:15;6.50;99.90
37984;DHT22;64625;50.882;4.376;2023-02-24T07:38:43;6.50;99.90
37984;DHT22;64625;50.882;4.376;2023-02-24T07:41:11;6.50;99.90
37984;DHT22;64625;50.882;4.376;2023-02-24T07:43:40;6.50;99.90
37984;DHT22;64625;50.882;4.376;2023-02-24T07:48:33;6.50;99.90
37984;DHT22;64625;50.882;4.376;2023-02-24T07:51:12;6.60;99.90
37984;DHT22;64625;50.882;4.376;2023-02-24T07:53:39;6.60;99.90
37984;DHT22;64625;50.882;4.376;2023-02-24T07:56:12;6.60;99.90
37984;DHT22;64625;50.882;4.376;2023-02-24T07:58:40;6.60;99.90
37984;DHT22;64625;50.882;4.376;2023-02-24T08:01:10;6.60;99.90
37984;DHT22;64625;50.882;4.376;2023-02-24T08:03:51;6.70;99.90
37984;DHT22;64625;50.882;4.376;2023-02-24T08:06:21;6.70;99.90
37984;DHT22;64625;50.882;4.376;2023-02-24T08:09:10;6.70;99.90
37984;DHT22;64625;50.882;4.376;2023-02-24T08:11:53;6.80;99.90
37984;DHT22;64625;50.882;4.376;2023-02-24T08:14:30;6.80;99.90
37984;DHT22;64625;50.882;4.376;2023-02-24T08:17:11;6.80;99.90
37984;DHT22;64625;50.882;4.376;2023-02-24T08:19:40;6.80;99.90
37984;DHT22;64625;50.882;4.376;2023-02-24T08:22:09;6.80;99.90
37984;DHT22;64625;50.882;4.376;2023-02-24T08:24:55;6.90;99.90
37984;DHT22;64625;50.882;4.376;2023-02-24T08:27:27;6.90;99.90
37984;DHT22;64625;50.882;4.376;2023-02-24T08:29:57;6.90;99.90
37984;DHT22;64625;50.882;4.376;2023-02-24T08:32:40;6.90;99.90
37984;DHT22;64625;50.882;4.376;2023-02-24T08:35:16;7.00;99.90
37984;DHT22;64625;50.882;4.376;2023-02-24T08:37:49;7.00;99.90
37984;DHT22;64625;50.882;4.376;2023-02-24T08:40:24;7.00;99.90
37984;DHT22;64625;50.882;4.376;2023-02-24T08:43:18;7.00;99.90
37984;DHT22;64625;50.882;4.376;2023-02-24T08:45:50;7.10;99.90
37984;DHT22;64625;50.882;4.376;2023-02-24T08:48:25;7.10;99.90
37984;DHT22;64625;50.882;4.376;2023-02-24T08:50:58;7.10;99.90
37984;DHT22;64625;50.882;4.376;2023-02-24T08:53:25;7.20;99.90
37984;DHT22;64625;50.882;4.376;2023-02-24T08:55:58;7.20;99.90
37984;DHT22;64625;50.882;4.376;2023-02-24T08:58:24;7.20;99.90
37984;DHT22;64625;50.882;4.376;2023-02-24T09:00:55;7.30;99.90
37984;DHT22;64625;50.882;4.376;2023-02-24T09:03:26;7.20;99.90
37984;DHT22;64625;50.882;4.376;2023-02-24T09:05:58;7.30;99.90
37984;DHT22;64625;50.882;4.376;2023-02-24T09:08:24;7.30;99.90
37984;DHT22;64625;50.882;4.376;2023-02-24T09:10:58;7.30;99.90
37984;DHT22;64625;50.882;4.376;2023-02-24T09:13:24;7.30;99.90
37984;DHT22;64625;50.882;4.376;2023-02-24T09:15:59;7.40;99.90
37984;DHT22;64625;50.882;4.376;2023-02-24T09:18:25;7.40;99.90
37984;DHT22;64625;50.882;4.376;2023-02-24T09:20:57;7.40;99.90
37984;DHT22;64625;50.882;4.376;2023-02-24T09:23:49;7.50;99.90
37984;DHT22;64625;50.882;4.376;2023-02-24T09:26:14;7.60;99.90
37984;DHT22;64625;50.882;4.376;2023-02-24T09:28:40;7.60;99.90
37984;DHT22;64625;50.882;4.376;2023-02-24T09:31:20;7.70;99.90
37984;DHT22;64625;50.882;4.376;2023-02-24T09:34:07;7.80;99.90
37984;DHT22;64625;50.882;4.376;2023-02-24T09:36:35;7.90;99.90
37984;DHT22;64625;50.882;4.376;2023-02-24T09:39:10;7.90;99.90
37984;DHT22;64625;50.882;4.376;2023-02-24T09:41:45;8.10;99.90
37984;DHT22;64625;50.882;4.376;2023-02-24T09:47:19;8.20;99.90
37984;DHT22;64625;50.882;4.376;2023-02-24T09:52:46;8.40;99.90
37984;DHT22;64625;50.882;4.376;2023-02-24T09:55:20;8.40;99.90
37984;DHT22;64625;50.882;4.376;2023-02-24T10:04:33;8.60;99.90
37984;DHT22;64625;50.882;4.376;2023-02-24T10:07:19;8.60;99.90
37984;DHT22;64625;50.882;4.376;2023-02-24T10:09:59;8.70;99.90
37984;DHT22;64625;50.882;4.376;2023-02-24T10:12:50;8.70;99.90
37984;DHT22;64625;50.882;4.376;2023-02-24T10:15:20;8.70;99.90
37984;DHT22;64625;50.882;4.376;2023-02-24T10:21:21;8.70;99.90
37984;DHT22;64625;50.882;4.376;2023-02-24T10:24:11;8.70;99.90
37984;DHT22;64625;50.882;4.376;2023-02-24T10:26:57;8.70;99.90
37984;DHT22;64625;50.882;4.376;2023-02-24T10:34:59;8.80;99.90
37984;DHT22;64625;50.882;4.376;2023-02-24T10:37:27;8.80;99.90
37984;DHT22;64625;50.882;4.376;2023-02-24T10:40:02;8.80;99.90
37984;DHT22;64625;50.882;4.376;2023-02-24T10:42:35;8.80;99.90
37984;DHT22;64625;50.882;4.376;2023-02-24T10:45:23;8.90;99.90
37984;DHT22;64625;50.882;4.376;2023-02-24T10:47:52;8.90;99.90
37984;DHT22;64625;50.882;4.376;2023-02-24T10:50:30;8.90;99.90
37984;DHT22;64625;50.882;4.376;2023-02-24T10:53:20;8.90;99.90
37984;DHT22;64625;50.882;4.376;2023-02-24T10:55:57;8.90;99.90
37984;DHT22;64625;50.882;4.376;2023-02-24T10:58:43;8.90;99.90
37984;DHT22;64625;50.882;4.376;2023-02-24T11:01:29;9.00;99.90
37984;DHT22;64625;50.882;4.376;2023-02-24T11:04:20;9.00;99.90
37984;DHT22;64625;50.882;4.376;2023-02-24T11:07:02;9.00;99.90
37984;DHT22;64625;50.882;4.376;2023-02-24T11:09:35;9.10;99.90
37984;DHT22;64625;50.882;4.376;2023-02-24T11:12:44;9.10;99.90
37984;DHT22;64625;50.882;4.376;2023-02-24T11:15:50;9.10;99.90
37984;DHT22;64625;50.882;4.376;2023-02-24T11:18:35;9.20;99.90
37984;DHT22;64625;50.882;4.376;2023-02-24T11:21:08;9.20;99.90
37984;DHT22;64625;50.882;4.376;2023-02-24T11:23:46;9.20;99.90
37984;DHT22;64625;50.882;4.376;2023-02-24T11:26:21;9.20;99.90
37984;DHT22;64625;50.882;4.376;2023-02-24T11:31:39;9.30;99.90
37984;DHT22;64625;50.882;4.376;2023-02-24T11:34:33;9.40;99.90
37984;DHT22;64625;50.882;4.376;2023-02-24T11:45:11;9.60;99.90
37984;DHT22;64625;50.882;4.376;2023-02-24T11:47:47;9.70;99.90
37984;DHT22;64625;50.882;4.376;2023-02-24T11:50:27;9.80;99.90
37984;DHT22;64625;50.882;4.376;2023-02-24T11:52:55;9.80;99.90
37984;DHT22;64625;50.882;4.376;2023-02-24T11:55:37;9.90;99.90
37984;DHT22;64625;50.882;4.376;2023-02-24T11:58:18;9.90;99.90
37984;DHT22;64625;50.882;4.376;2023-02-24T12:00:57;10.00;99.90
37984;DHT22;64625;50.882;4.376;2023-02-24T12:03:51;10.00;99.90
37984;DHT22;64625;50.882;4.376;2023-02-24T12:09:27;10.00;99.90
37984;DHT22;64625;50.882;4.376;2023-02-24T12:12:07;10.00;99.90
37984;DHT22;64625;50.882;4.376;2023-02-24T12:14:53;10.00;99.90
37984;DHT22;64625;50.882;4.376;2023-02-24T12:17:43;10.10;99.90
37984;DHT22;64625;50.882;4.376;2023-02-24T12:20:33;10.00;99.90
37984;DHT22;64625;50.882;4.376;2023-02-24T12:23:16;10.00;99.90
37984;DHT22;64625;50.882;4.376;2023-02-24T12:31:45;10.00;99.90
37984;DHT22;64625;50.882;4.376;2023-02-24T12:37:47;10.10;99.90
37984;DHT22;64625;50.882;4.376;2023-02-24T12:45:36;10.10;99.90
37984;DHT22;64625;50.882;4.376;2023-02-24T13:00:05;10.30;99.90
37984;DHT22;64625;50.882;4.376;2023-02-24T13:02:56;10.30;99.90
37984;DHT22;64625;50.882;4.376;2023-02-24T13:05:31;10.40;99.90
37984;DHT22;64625;50.882;4.376;2023-02-24T13:08:17;10.40;99.90
37984;DHT22;64625;50.882;4.376;2023-02-24T13:11:13;10.40;99.90
37984;DHT22;64625;50.882;4.376;2023-02-24T13:14:21;10.40;99.90
37984;DHT22;64625;50.882;4.376;2023-02-24T13:16:31;10.50;99.90
37984;DHT22;64625;50.882;4.376;2023-02-24T13:21:42;10.60;99.90
37984;DHT22;64625;50.882;4.376;2023-02-24T13:24:20;10.60;99.90
37984;DHT22;64625;50.882;4.376;2023-02-24T13:26:48;10.60;99.90
37984;DHT22;64625;50.882;4.376;2023-02-24T13:29:14;10.60;99.90
37984;DHT22;64625;50.882;4.376;2023-02-24T13:31:49;10.60;99.90
37984;DHT22;64625;50.882;4.376;2023-02-24T13:34:41;10.70;99.90
37984;DHT22;64625;50.882;4.376;2023-02-24T13:37:09;10.70;99.90
37984;DHT22;64625;50.882;4.376;2023-02-24T13:39:38;10.70;99.90
37984;DHT22;64625;50.882;4.376;2023-02-24T13:42:22;10.60;99.90
37984;DHT22;64625;50.882;4.376;2023-02-24T13:45:15;10.60;99.90
37984;DHT22;64625;50.882;4.376;2023-02-24T13:50:24;10.60;99.90
37984;DHT22;64625;50.882;4.376;2023-02-24T14:01:07;10.50;99.90
37984;DHT22;64625;50.882;4.376;2023-02-24T14:03:36;10.50;99.90
37984;DHT22;64625;50.882;4.376;2023-02-24T14:06:05;10.50;99.90
37984;DHT22;64625;50.882;4.376;2023-02-24T14:08:49;10.50;99.90
37984;DHT22;64625;50.882;4.376;2023-02-24T14:11:18;10.40;99.90
37984;DHT22;64625;50.882;4.376;2023-02-24T14:13:52;10.40;99.90
37984;DHT22;64625;50.882;4.376;2023-02-24T14:16:24;10.40;99.90
37984;DHT22;64625;50.882;4.376;2023-02-24T14:18:53;10.40;99.90
37984;DHT22;64625;50.882;4.376;2023-02-24T14:21:22;10.40;99.90
37984;DHT22;64625;50.882;4.376;2023-02-24T14:23:58;10.30;99.90
37984;DHT22;64625;50.882;4.376;2023-02-24T14:26:27;10.30;99.90
37984;DHT22;64625;50.882;4.376;2023-02-24T14:28:58;10.30;99.90
37984;DHT22;64625;50.882;4.376;2023-02-24T14:31:26;10.20;99.90
37984;DHT22;64625;50.882;4.376;2023-02-24T14:34:02;10.20;99.90
37984;DHT22;64625;50.882;4.376;2023-02-24T14:36:38;10.20;99.90
37984;DHT22;64625;50.882;4.376;2023-02-24T14:39:18;10.10;99.90
37984;DHT22;64625;50.882;4.376;2023-02-24T14:41:45;10.10;99.90
37984;DHT22;64625;50.882;4.376;2023-02-24T14:44:25;10.10;99.90
37984;DHT22;64625;50.882;4.376;2023-02-24T14:46:54;10.00;99.90
37984;DHT22;64625;50.882;4.376;2023-02-24T14:49:30;10.00;99.90
37984;DHT22;64625;50.882;4.376;2023-02-24T14:52:04;9.90;99.90
37984;DHT22;64625;50.882;4.376;2023-02-24T14:55:09;9.90;99.90
37984;DHT22;64625;50.882;4.376;2023-02-24T15:00:24;9.80;99.90
37984;DHT22;64625;50.882;4.376;2023-02-24T15:03:00;9.70;99.90
37984;DHT22;64625;50.882;4.376;2023-02-24T15:05:28;9.70;99.90
37984;DHT22;64625;50.882;4.376;2023-02-24T15:07:54;9.60;99.90
37984;DHT22;64625;50.882;4.376;2023-02-24T15:10:26;9.60;99.90
37984;DHT22;64625;50.882;4.376;2023-02-24T15:13:14;9.60;99.90
37984;DHT22;64625;50.882;4.376;2023-02-24T15:15:42;9.50;99.90
37984;DHT22;64625;50.882;4.376;2023-02-24T15:18:28;9.50;99.90
37984;DHT22;64625;50.882;4.376;2023-02-24T15:21:06;9.50;99.90
37984;DHT22;64625;50.882;4.376;2023-02-24T15:23:34;9.50;99.90
37984;DHT22;64625;50.882;4.376;2023-02-24T15:26:01;9.50;99.90
37984;DHT22;64625;50.882;4.376;2023-02-24T15:28:33;9.40;99.90
37984;DHT22;64625;50.882;4.376;2023-02-24T15:33:38;9.40;99.90
37984;DHT22;64625;50.882;4.376;2023-02-24T15:36:09;9.40;99.90
37984;DHT22;64625;50.882;4.376;2023-02-24T15:38:38;9.40;99.90
37984;DHT22;64625;50.882;4.376;2023-02-24T15:41:06;9.40;99.90
37984;DHT22;64625;50.882;4.376;2023-02-24T15:46:32;9.50;99.90
37984;DHT22;64625;50.882;4.376;2023-02-24T15:48:59;9.50;99.90
37984;DHT22;64625;50.882;4.376;2023-02-24T15:51:41;9.50;99.90
37984;DHT22;64625;50.882;4.376;2023-02-24T15:54:18;9.50;99.90
37984;DHT22;64625;50.882;4.376;2023-02-24T15:56:45;9.50;99.90
37984;DHT22;64625;50.882;4.376;2023-02-24T15:59:13;9.50;99.90
37984;DHT22;64625;50.882;4.376;2023-02-24T16:01:39;9.50;99.90
37984;DHT22;64625;50.882;4.376;2023-02-24T16:04:05;9.50;99.90
37984;DHT22;64625;50.882;4.376;2023-02-24T16:06:35;9.50;99.90
37984;DHT22;64625;50.882;4.376;2023-02-24T16:09:13;9.50;99.90
37984;DHT22;64625;50.882;4.376;2023-02-24T16:11:43;9.50;99.90
37984;DHT22;64625;50.882;4.376;2023-02-24T16:14:16;9.50;99.90
37984;DHT22;64625;50.882;4.376;2023-02-24T16:16:43;9.50;99.90
37984;DHT22;64625;50.882;4.376;2023-02-24T16:19:15;9.50;99.90
37984;DHT22;64625;50.882;4.376;2023-02-24T16:21:42;9.50;99.90
37984;DHT22;64625;50.882;4.376;2023-02-24T16:24:08;9.50;99.90
37984;DHT22;64625;50.882;4.376;2023-02-24T16:26:40;9.50;99.90
37984;DHT22;64625;50.882;4.376;2023-02-24T16:29:06;9.50;99.90
37984;DHT22;64625;50.882;4.376;2023-02-24T16:31:37;9.50;99.90
37984;DHT22;64625;50.882;4.376;2023-02-24T16:34:04;9.50;99.90
37984;DHT22;64625;50.882;4.376;2023-02-24T16:36:30;9.50;99.90
37984;DHT22;64625;50.882;4.376;2023-02-24T16:38:56;9.50;99.90
37984;DHT22;64625;50.882;4.376;2023-02-24T16:41:22;9.50;99.90
37984;DHT22;64625;50.882;4.376;2023-02-24T16:43:49;9.40;99.90
37984;DHT22;64625;50.882;4.376;2023-02-24T16:46:20;9.50;99.90
37984;DHT22;64625;50.882;4.376;2023-02-24T16:48:49;9.40;99.90
37984;DHT22;64625;50.882;4.376;2023-02-24T16:51:17;9.40;99.90
37984;DHT22;64625;50.882;4.376;2023-02-24T16:53:43;9.40;99.90
37984;DHT22;64625;50.882;4.376;2023-02-24T16:56:09;9.40;99.90
37984;DHT22;64625;50.882;4.376;2023-02-24T16:58:37;9.40;99.90
37984;DHT22;64625;50.882;4.376;2023-02-24T17:01:03;9.40;99.90
37984;DHT22;64625;50.882;4.376;2023-02-24T17:03:40;9.40;99.90
37984;DHT22;64625;50.882;4.376;2023-02-24T17:06:06;9.40;99.90
37984;DHT22;64625;50.882;4.376;2023-02-24T17:08:32;9.40;99.90
37984;DHT22;64625;50.882;4.376;2023-02-24T17:10:58;9.30;99.90
37984;DHT22;64625;50.882;4.376;2023-02-24T17:13:24;9.30;99.90
37984;DHT22;64625;50.882;4.376;2023-02-24T17:15:51;9.30;99.90
37984;DHT22;64625;50.882;4.376;2023-02-24T17:18:20;9.20;99.90
37984;DHT22;64625;50.882;4.376;2023-02-24T17:20:47;9.10;99.90
37984;DHT22;64625;50.882;4.376;2023-02-24T17:23:12;9.10;99.90
37984;DHT22;64625;50.882;4.376;2023-02-24T17:25:38;9.00;99.90
37984;DHT22;64625;50.882;4.376;2023-02-24T17:28:05;8.90;99.90
37984;DHT22;64625;50.882;4.376;2023-02-24T17:30:32;8.90;99.90
37984;DHT22;64625;50.882;4.376;2023-02-24T17:32:59;8.90;99.90
37984;DHT22;64625;50.882;4.376;2023-02-24T17:35:25;8.80;99.90
37984;DHT22;64625;50.882;4.376;2023-02-24T17:37:51;8.80;99.90
37984;DHT22;64625;50.882;4.376;2023-02-24T17:40:18;8.80;99.90
37984;DHT22;64625;50.882;4.376;2023-02-24T17:42:44;8.80;99.90
37984;DHT22;64625;50.882;4.376;2023-02-24T17:45:10;8.70;99.90
37984;DHT22;64625;50.882;4.376;2023-02-24T17:47:37;8.70;99.90
37984;DHT22;64625;50.882;4.376;2023-02-24T17:50:11;8.70;99.90
37984;DHT22;64625;50.882;4.376;2023-02-24T17:52:37;8.70;99.90
37984;DHT22;64625;50.882;4.376;2023-02-24T17:55:04;8.70;99.90
37984;DHT22;64625;50.882;4.376;2023-02-24T17:57:33;8.60;99.90
37984;DHT22;64625;50.882;4.376;2023-02-24T17:59:59;8.60;99.90
37984;DHT22;64625;50.882;4.376;2023-02-24T18:02:25;8.60;99.90
37984;DHT22;64625;50.882;4.376;2023-02-24T18:04:50;8.50;99.90
37984;DHT22;64625;50.882;4.376;2023-02-24T18:07:17;8.50;99.90
37984;DHT22;64625;50.882;4.376;2023-02-24T18:09:42;8.50;99.90
37984;DHT22;64625;50.882;4.376;2023-02-24T18:12:08;8.40;99.90
37984;DHT22;64625;50.882;4.376;2023-02-24T18:14:35;8.40;99.90
37984;DHT22;64625;50.882;4.376;2023-02-24T18:17:01;8.40;99.90
37984;DHT22;64625;50.882;4.376;2023-02-24T18:19:27;8.30;99.90
37984;DHT22;64625;50.882;4.376;2023-02-24T18:21:55;8.30;99.90
37984;DHT22;64625;50.882;4.376;2023-02-24T18:24:21;8.30;99.90
37984;DHT22;64625;50.882;4.376;2023-02-24T18:26:47;8.30;99.90
37984;DHT22;64625;50.882;4.376;2023-02-24T18:29:13;8.20;99.90
37984;DHT22;64625;50.882;4.376;2023-02-24T18:31:39;8.20;99.90
37984;DHT22;64625;50.882;4.376;2023-02-24T18:34:05;8.20;99.90
37984;DHT22;64625;50.882;4.376;2023-02-24T18:36:31;8.10;99.90